createdAt,value
2022-08-16T00:03:13.696Z,100548.94
2022-08-16T00:07:10.749Z,100536.03
2022-08-16T00:27:06.657Z,100517.28
2022-08-16T00:39:15.583Z,100547.34
2022-08-16T00:42:48.911Z,100514.25
2022-08-16T00:50:13.269Z,100522.63
2022-08-16T00:54:31.396Z,100561.88
2022-08-16T00:57:58.912Z,100549.78
2022-08-16T01:44:52.783Z,100557.25
2022-08-16T03:26:20.925Z,100589.69
2022-08-16T03:29:03.354Z,100588.28
2022-08-16T03:32:22.788Z,100600.91
2022-08-16T03:34:51.771Z,100583.78
2022-08-16T03:37:27.141Z,100585.44
2022-08-16T03:40:02.834Z,100596.41
2022-08-16T03:43:19.136Z,100591.09
2022-08-16T03:54:12.608Z,100576.44
2022-08-16T03:56:57.267Z,100615.22
2022-08-16T03:59:29.522Z,100598.94
2022-08-16T04:02:12.195Z,100585.56
2022-08-16T04:04:54.213Z,100576.13
2022-08-16T04:07:33.523Z,100617.16
2022-08-16T04:10:33.919Z,100614.34
2022-08-16T04:13:04.072Z,100566.44
2022-08-16T04:15:35.806Z,100580.03
2022-08-16T04:18:37.198Z,100577.50
2022-08-16T04:21:13.855Z,100604.22
2022-08-16T04:24:01.231Z,100566.50
2022-08-16T04:26:30.812Z,100608.66
2022-08-16T04:29:15.192Z,100595.56
2022-08-16T04:32:20.084Z,100610.88
2022-08-16T04:34:54.845Z,100589.91
2022-08-16T04:37:42.212Z,100599.34
2022-08-16T04:40:30.260Z,100595.28
2022-08-16T04:43:06.348Z,100626.59
2022-08-16T04:46:00.298Z,100587.84
2022-08-16T06:01:47.102Z,100584.06
2022-08-16T07:36:33.713Z,100569.16
2022-08-16T08:20:01.324Z,100557.47
2022-08-16T16:54:27.657Z,100350.44
2022-08-16T16:57:42.390Z,100353.06
2022-08-16T17:00:59.809Z,100336.59
2022-08-16T17:09:21.835Z,100368.47
2022-08-16T18:09:29.153Z,100369.41
2022-08-16T18:13:05.096Z,100376.50
2022-08-16T18:36:31.961Z,100356.09
2022-08-16T18:41:21.188Z,100348.91
2022-08-16T18:56:55.469Z,100362.38
2022-08-16T18:59:37.700Z,100351.81
